Flight Track Log - Related Links

Times and Time Zones

All times are in EDT time to prevent confusion due to time zone crossing. See the AAY846 flight status page for this flight to view local times or setup timezone preferences in your user account.

Time Position Orientation Groundspeed Altitude Reporting Facility
EDT Latitude Longitude Course Direction KTS MPH feet Rate Location/Type
Wed 08:41:54 AM 27.9000 -82.6833 180° South 164 189 900  Level Tampa TRACON
Wed 08:42:49 AM 27.8500 -82.6833 180° South 201 231 2,500 1,826 Climbing Tampa TRACON
Wed 08:43:49 AM 27.8333 -82.7333 249° West 273 314 4,400 2,521 Climbing Tampa TRACON
Wed 08:45:57 AM 27.9747 -82.7914 340° North 264 304 10,400 2,489 Climbing Jacksonville Center
Wed 08:46:57 AM 28.0539 -82.8033 352° North 278 320 12,200 1,500 Climbing Jacksonville Center
Wed 08:47:57 AM 28.1500 -82.8172 353° North 312 359 13,400 1,450 Climbing Jacksonville Center
Wed 08:48:57 AM 28.2606 -82.8314 354° North 361 415 15,100 1,950 Climbing Jacksonville Center
Wed 08:49:57 AM 28.3794 -82.8431 355° North 400 460 17,300 2,050 Climbing Jacksonville Center
Wed 08:50:57 AM 28.4983 -82.8572 354° North 422 486 19,200 1,900 Climbing Jacksonville Center
Wed 08:51:57 AM 28.6194 -82.8714 354° North 433 498 21,100 1,850 Climbing Jacksonville Center
Wed 08:52:57 AM 28.7592 -82.8808 357° North 439 505 22,900 1,700 Climbing Jacksonville Center
Wed 08:53:57 AM 28.8867 -82.8903 356° North 450 518 24,500 2,000 Climbing Jacksonville Center
Wed 08:54:57 AM 29.0139 -82.8997 356° North 450 518 26,900 2,100 Climbing Jacksonville Center
Wed 08:55:57 AM 29.1372 -82.9044 358° North 450 518 28,700 1,550 Climbing Jacksonville Center
Wed 08:56:57 AM 29.2603 -82.9117 357° North 444 511 30,000 600 Climbing Jacksonville Center
Wed 08:57:57 AM 29.3833 -82.9164 358° North 439 505 29,900 -50 Descending Jacksonville Center
Wed 08:58:57 AM 29.5128 -82.9261 356° North 446 513 29,900  Level Jacksonville Center
Wed 08:59:57 AM 29.6361 -82.9333 357° North 451 519 29,900  Level Jacksonville Center
Wed 09:00:57 AM 29.7614 -82.9381 358° North 451 519 29,900 50 Level Jacksonville Center
Wed 09:01:57 AM 29.8781 -82.9739 345° North 439 505 30,000  Climbing Jacksonville Center
Wed 09:02:57 AM 29.9783 -83.0556 325° Northwest 439 505 29,900 -50 Descending Jacksonville Center
Wed 09:03:57 AM 30.0639 -83.1303 323° Northwest 439 505 29,900  Level Jacksonville Center
Wed 09:04:57 AM 30.1597 -83.2169 322° Northwest 439 505 29,900  Level Jacksonville Center
Wed 09:05:57 AM 30.2553 -83.3061 321° Northwest 439 505 29,900  Level Jacksonville Center
Wed 09:06:57 AM 30.3511 -83.3908 323° Northwest 439 505 29,900  Level Jacksonville Center
Wed 09:07:57 AM 30.4447 -83.4806 320° Northwest 439 505 29,900  Level Jacksonville Center
Wed 09:08:57 AM 30.5403 -83.5656 323° Northwest 439 505 29,900 50 Level Jacksonville Center
Wed 09:09:57 AM 30.6422 -83.6628 321° Northwest 439 505 30,000 50 Climbing Jacksonville Center
Wed 09:10:57 AM 30.7397 -83.7506 322° Northwest 439 505 30,000  Level Jacksonville Center
Wed 09:11:57 AM 30.8350 -83.8386 322° Northwest 439 505 30,000  Level Jacksonville Center
Wed 09:12:57 AM 30.9200 -83.9194 321° Northwest 439 505 30,000  Level Jacksonville Center
Wed 09:13:57 AM 31.0194 -84.0078 323° Northwest 445 512 30,000  Level Jacksonville Center
Wed 09:14:57 AM 31.1147 -84.0986 321° Northwest 445 512 30,000  Level Jacksonville Center
Wed 09:15:57 AM 31.2100 -84.1897 321° Northwest 445 512 30,000  Level Jacksonville Center
Wed 09:16:57 AM 31.3092 -84.2811 322° Northwest 445 512 30,000  Level Jacksonville Center
Wed 09:17:57 AM 31.4042 -84.3700 321° Northwest 440 506 30,000  Level Jacksonville Center
Wed 09:18:57 AM 31.4992 -84.4592 321° Northwest 440 506 30,000  Level Jacksonville Center
Wed 09:21:15 AM 31.7283 -84.6761 321° Northwest 444 511 30,000  Level Atlanta Center
Wed 09:22:15 AM 31.8217 -84.7622 322° Northwest 439 505 30,000  Level Atlanta Center
Wed 09:23:15 AM 31.9319 -84.8269 334° Northwest 434 499 30,000  Level Atlanta Center
Wed 09:24:15 AM 32.0506 -84.8672 344° North 434 499 30,000  Level Atlanta Center
Wed 09:25:15 AM 32.1714 -84.9100 343° North 440 506 30,000  Level Atlanta Center
Wed 09:26:15 AM 32.2881 -84.9481 345° North 440 506 30,000  Level Atlanta Center
Wed 09:27:15 AM 32.3983 -84.9836 345° North 440 506 30,000  Level Atlanta Center
Wed 09:28:15 AM 32.5233 -85.0242 345° North 445 512 30,000  Level Atlanta Center
Wed 09:29:15 AM 32.6378 -85.0650 343° North 445 512 30,000  Level Atlanta Center
Wed 09:30:15 AM 32.7606 -85.1058 344° North 439 505 30,000  Level Atlanta Center
Wed 09:31:15 AM 32.8667 -85.1492 341° North 453 521 30,000  Level Atlanta Center
Wed 09:32:15 AM 33.0000 -85.1881 346° North 447 514 30,000  Level Atlanta Center
Wed 09:33:15 AM 33.1289 -85.2469 339° North 452 520 30,000  Level Atlanta Center
Wed 09:34:15 AM 33.2450 -85.3031 338° Northwest 446 513 30,000  Level Atlanta Center
Wed 09:35:15 AM 33.3614 -85.3544 340° North 446 513 30,000  Level Atlanta Center
Wed 09:36:15 AM 33.4756 -85.4086 338° Northwest 446 513 30,000  Level Atlanta Center
Wed 09:37:15 AM 33.5939 -85.4628 339° North 451 519 30,000  Level Atlanta Center
Wed 09:38:15 AM 33.7083 -85.5147 339° North 451 519 30,000  Level Atlanta Center
Wed 09:39:15 AM 33.8161 -85.5664 338° Northwest 451 519 30,000  Level Atlanta Center
Wed 09:40:15 AM 33.9303 -85.6186 339° North 451 519 30,000  Level Atlanta Center
Wed 09:41:15 AM 34.0444 -85.6708 339° North 446 513 30,000  Level Atlanta Center
Wed 09:42:15 AM 34.1606 -85.7258 339° North 446 513 30,000  Level Atlanta Center
Wed 09:43:15 AM 34.2786 -85.7808 339° North 451 519 30,000  Level Atlanta Center
Wed 09:44:15 AM 34.3989 -85.8339 340° North 440 506 30,000  Level Atlanta Center
Wed 09:45:15 AM 34.5047 -85.8864 338° Northwest 435 501 30,000  Level Atlanta Center
Wed 09:46:15 AM 34.6206 -85.9394 339° North 441 507 30,000  Level Atlanta Center
Wed 09:47:15 AM 34.7367 -85.9953 338° Northwest 446 513 30,000  Level Atlanta Center
Wed 09:48:15 AM 34.8506 -86.0511 338° Northwest 446 513 30,000  Level Atlanta Center
Wed 09:49:15 AM 34.9644 -86.1094 337° Northwest 451 519 30,000  Level Atlanta Center
Wed 09:50:15 AM 35.0803 -86.1606 340° North 445 512 30,000  Level Atlanta Center
Wed 09:52:23 AM 35.3297 -86.2864 338° Northwest 443 510 30,000  Level Memphis Center
Wed 09:53:25 AM 35.4453 -86.3450 338° Northwest 443 510 30,000  Level Memphis Center
Wed 09:54:27 AM 35.5631 -86.4006 339° North 443 510 30,000  Level Memphis Center
Wed 09:55:29 AM 35.6783 -86.4578 338° Northwest 443 510 30,000  Level Memphis Center
Wed 09:56:31 AM 35.8131 -86.5247 338° Northwest 443 510 30,000  Level Memphis Center
Wed 09:57:33 AM 35.9278 -86.5811 338° Northwest 443 510 30,000  Level Memphis Center
Wed 09:58:35 AM 36.0422 -86.6381 338° Northwest 441 507 30,000  Level Memphis Center
Wed 09:59:38 AM 36.1575 -86.6958 338° Northwest 441 507 30,000  Level Memphis Center
Wed 10:00:40 AM 36.2681 -86.7608 335° Northwest 441 507 30,000  Level Memphis Center
Wed 10:01:42 AM 36.3939 -86.8347 335° Northwest 441 507 30,000  Level Memphis Center
Wed 10:02:44 AM 36.5044 -86.8994 335° Northwest 441 507 30,000  Level Memphis Center
Wed 10:03:46 AM 36.6133 -86.9647 334° Northwest 436 502 30,000  Level Memphis Center
Wed 10:04:48 AM 36.7233 -87.0311 334° Northwest 436 502 30,000  Level Memphis Center
Wed 10:05:50 AM 36.8344 -87.0975 334° Northwest 436 502 30,000  Level Memphis Center
Wed 10:06:52 AM 36.9453 -87.1636 335° Northwest 436 502 30,000  Level Memphis Center
Wed 10:07:54 AM 37.0753 -87.2406 335° Northwest 436 502 30,000  Level Memphis Center
Wed 10:09:04 AM 37.2039 -87.3189 334° Northwest 437 503 30,000  Level Indianapolis Center
Wed 10:10:08 AM 37.3139 -87.3856 334° Northwest 437 503 30,000  Level Indianapolis Center
Wed 10:11:11 AM 37.4242 -87.4522 334° Northwest 437 503 30,000  Level Indianapolis Center
Wed 10:12:12 AM 37.5350 -87.5194 334° Northwest 437 503 30,000  Level Indianapolis Center
Wed 10:13:15 AM 37.6442 -87.5883 333° Northwest 437 503 30,000  Level Indianapolis Center
Wed 10:14:16 AM 37.7536 -87.6539 335° Northwest 435 501 30,000  Level Indianapolis Center
Wed 10:15:19 AM 37.8778 -87.7317 334° Northwest 435 501 30,000  Level Indianapolis Center
Wed 10:16:19 AM 37.9872 -87.7967 335° Northwest 434 499 30,000  Level Indianapolis Center
Wed 10:17:23 AM 38.0972 -87.8628 335° Northwest 434 499 30,000  Level Indianapolis Center
Wed 10:18:23 AM 38.2083 -87.9264 336° Northwest 434 499 30,000  Level Indianapolis Center
Wed 10:19:27 AM 38.3178 -87.9925 335° Northwest 433 498 30,000  Level Indianapolis Center
Wed 10:20:28 AM 38.4281 -88.0581 335° Northwest 433 498 30,000  Level Indianapolis Center
Wed 10:21:31 AM 38.5372 -88.1239 335° Northwest 433 498 30,000  Level Indianapolis Center
Wed 10:22:14 AM 38.6256 -88.1769 335° Northwest 433 498 30,000 -168 Level Kansas City Center
Wed 10:23:18 AM 38.7347 -88.2422 335° Northwest 433 498 29,700 -816 Descending Kansas City Center
Wed 10:24:19 AM 38.8456 -88.3081 335° Northwest 433 498 28,300 -1,377 Descending Kansas City Center
Wed 10:25:20 AM 38.9558 -88.3758 334° Northwest 433 498 26,900 -1,279 Descending Kansas City Center
Wed 10:26:21 AM 39.0708 -88.4453 335° Northwest 446 513 25,700 -1,065 Descending Kansas City Center
Wed 10:27:24 AM 39.2089 -88.5289 335° Northwest 449 517 24,700 -829 Descending Kansas City Center
Wed 10:28:24 AM 39.3167 -88.5953 335° Northwest 452 520 24,000 -726 Descending Kansas City Center
Wed 10:29:28 AM 39.4206 -88.6578 335° Northwest 451 519 23,200 -1,056 Descending Kansas City Center
Wed 10:30:29 AM 39.5533 -88.7394 335° Northwest 445 512 21,800 -1,488 Descending Kansas City Center
Wed 10:31:33 AM 39.6619 -88.8069 334° Northwest 438 504 20,100 -1,392 Descending Kansas City Center
Wed 10:32:34 AM 39.7669 -88.8772 333° Northwest 430 495 18,900 -1,190 Descending Kansas City Center
Wed 10:33:34 AM 39.8603 -88.9622 325° Northwest 415 478 17,700 -1,263 Descending Kansas City Center
Wed 10:34:09 AM 39.9158 -89.0128 325° Northwest 414 476 16,900 -1,113 Descending Chicago Center
Wed 10:35:11 AM 40.0061 -89.0961 325° Northwest 404 465 15,900 -1,210 Descending Chicago Center
Wed 10:36:13 AM 40.0944 -89.1733 326° Northwest 393 452 14,400 -2,129 Descending Chicago Center
Wed 10:37:15 AM 40.1800 -89.2497 326° Northwest 381 438 11,500 -1,645 Descending Chicago Center
Wed 10:38:17 AM 40.2628 -89.3300 324° Northwest 376 433 11,000 -629 Descending Chicago Center
Wed 10:39:19 AM 40.3442 -89.4400 314° West 360 414 10,200 -726 Descending Chicago Center
Wed 10:40:21 AM 40.4019 -89.5103 317° Northwest 312 359 9,500 -1,161 Descending Chicago Center
Wed 10:41:23 AM 40.4544 -89.5764 316° Northwest 280 322 7,800 -1,707 Descending Chicago Center
Wed 10:42:24 AM 40.5031 -89.6506 311° West 270 311 6,000 -1,805 Descending Chicago Center
Wed 10:43:26 AM 40.5464 -89.7333 305° West 271 312 4,100 -968 Descending Chicago Center
Wed 10:44:28 AM 40.5878 -89.8153 304° West 265 305 4,000 -97 Descending Chicago Center
Wed 10:45:30 AM 40.6297 -89.8731 314° West 239 275 3,900 -581 Descending Chicago Center
Wed 10:46:32 AM 40.6872 -89.8594 10° North 222 255 2,800 -774 Descending Chicago Center
Wed 10:47:34 AM 40.7047 -89.7903 72° East 196 226 2,300 -726 Descending Chicago Center
Wed 10:48:36 AM 40.6883 -89.7375 112° Southeast 171 197 1,300 -726 Descending Chicago Center
Wed 10:49:38 AM 40.6625 -89.6931 127° Southeast 155 178 800 -484 Descending Chicago Center

Login

Don't have an account? Register now (free) for customized features, flight alerts, and more!